createdAt,value
2019-06-26T01:15:29.015Z,1.30
2019-06-26T01:17:56.381Z,1.40
2019-06-26T01:20:23.720Z,1.40
2019-06-26T01:22:51.094Z,1.40
2019-06-26T01:25:18.545Z,1.30
2019-06-26T01:27:45.855Z,1.40
2019-06-26T01:30:13.295Z,1.40
2019-06-26T01:32:40.664Z,1.30
2019-06-26T01:35:08.129Z,1.60
2019-06-26T01:37:35.532Z,1.30
2019-06-26T01:40:03.824Z,1.30
2019-06-26T01:42:31.173Z,1.30
2019-06-26T01:44:58.535Z,1.40
2019-06-26T01:47:25.855Z,1.40
2019-06-26T01:49:53.209Z,1.30
2019-06-26T01:52:20.591Z,1.60
2019-06-26T01:54:47.984Z,1.40
2019-06-26T01:57:15.370Z,1.40
2019-06-26T01:59:42.684Z,1.40
2019-06-26T02:02:10.053Z,1.40
2019-06-26T02:04:37.411Z,1.60
2019-06-26T02:07:04.727Z,3.17
2019-06-26T02:09:32.081Z,1.33
2019-06-26T02:12:00.491Z,1.30
2019-06-26T02:14:31.338Z,1.40
2019-06-26T02:16:56.983Z,1.40
2019-06-26T02:19:24.349Z,1.20
2019-06-26T02:21:51.727Z,1.30
2019-06-26T02:24:19.081Z,1.30
2019-06-26T02:26:46.535Z,1.40
2019-06-26T02:29:13.857Z,1.60
2019-06-26T02:31:41.234Z,1.63
2019-06-26T02:34:08.538Z,2.23
2019-06-26T02:36:35.934Z,1.60
2019-06-26T02:39:05.159Z,1.50
2019-06-26T02:41:32.528Z,1.40
2019-06-26T02:43:59.904Z,1.50
2019-06-26T02:46:27.261Z,1.40
2019-06-26T02:48:54.585Z,1.30
2019-06-26T02:51:21.968Z,1.30
2019-06-26T02:53:49.369Z,1.33
2019-06-26T02:56:16.739Z,1.27
2019-06-26T02:58:44.099Z,4.40
2019-06-26T03:01:11.428Z,2.10
2019-06-26T03:03:38.757Z,1.20
2019-06-26T03:06:06.130Z,1.40
2019-06-26T03:08:33.451Z,1.40
2019-06-26T03:11:00.841Z,1.40
2019-06-26T03:13:28.196Z,1.50
2019-06-26T03:15:55.476Z,1.50
2019-06-26T03:18:22.801Z,1.47
2019-06-26T03:20:51.623Z,1.33
2019-06-26T03:23:18.950Z,1.40
2019-06-26T03:25:46.248Z,1.40
2019-06-26T03:28:13.566Z,1.87
2019-06-26T03:30:40.880Z,1.77
2019-06-26T03:33:08.337Z,2.57
2019-06-26T03:35:35.728Z,1.20
2019-06-26T03:38:03.133Z,3.00
2019-06-26T03:40:30.507Z,3.60
2019-06-26T03:42:57.818Z,1.40
2019-06-26T03:45:26.499Z,1.30
2019-06-26T03:47:53.992Z,1.40
2019-06-26T03:50:21.466Z,1.50
2019-06-26T03:52:48.856Z,1.50
2019-06-26T03:55:16.435Z,1.47
2019-06-26T03:57:43.794Z,1.30
2019-06-26T04:00:11.383Z,1.60
2019-06-26T04:02:38.735Z,1.50
2019-06-26T04:05:06.717Z,1.50
2019-06-26T04:07:34.102Z,1.70
2019-06-26T04:10:01.472Z,1.40
2019-06-26T04:12:31.616Z,1.30
2019-06-26T04:14:58.982Z,1.50
2019-06-26T04:17:26.307Z,1.50
2019-06-26T04:19:53.686Z,1.40
2019-06-26T04:22:21.072Z,1.80
2019-06-26T04:24:48.370Z,1.50
2019-06-26T04:27:15.795Z,1.30
2019-06-26T04:29:43.108Z,1.23
2019-06-26T04:32:10.545Z,1.50
2019-06-26T04:34:37.912Z,1.50
2019-06-26T04:37:09.488Z,1.50
2019-06-26T04:39:36.797Z,1.60
2019-06-26T04:42:04.247Z,1.50
2019-06-26T04:44:32.605Z,1.30
2019-06-26T04:46:59.892Z,2.00
2019-06-26T04:49:27.290Z,1.50
2019-06-26T04:51:54.604Z,1.77
2019-06-26T04:54:22.001Z,1.40
2019-06-26T04:56:49.381Z,1.57
2019-06-26T04:59:16.710Z,1.50
2019-06-26T05:01:44.090Z,1.83
2019-06-26T05:04:11.419Z,2.00
2019-06-26T08:13:52.191Z,2.80
2019-06-26T08:16:19.516Z,2.60
2019-06-26T08:18:46.874Z,2.33
2019-06-26T08:21:14.257Z,2.40
2019-06-26T08:23:41.650Z,2.83
2019-06-26T08:26:09.067Z,2.73
2019-06-26T08:28:36.474Z,2.80
2019-06-26T08:31:03.863Z,2.60
2019-06-26T08:33:31.236Z,2.83
2019-06-26T08:35:58.642Z,2.97
2019-06-26T08:38:26.003Z,3.00
2019-06-26T08:40:53.368Z,2.70
2019-06-26T08:43:20.684Z,2.73
2019-06-26T08:45:48.056Z,2.60
2019-06-26T08:48:28.291Z,2.83
2019-06-26T08:50:44.462Z,3.00
2019-06-26T08:53:11.865Z,3.10
2019-06-26T08:55:39.206Z,2.93
2019-06-26T08:58:06.666Z,3.13
2019-06-26T09:00:33.987Z,2.67
2019-06-26T09:03:01.411Z,2.80
2019-06-26T09:05:28.804Z,2.60
2019-06-26T09:07:56.228Z,2.33
2019-06-26T09:10:23.604Z,2.70
2019-06-26T09:12:50.891Z,2.70
2019-06-26T09:15:18.312Z,2.17
2019-06-26T09:17:45.599Z,2.73
2019-06-26T09:20:14.518Z,2.43
2019-06-26T09:22:41.944Z,2.60
2019-06-26T09:25:21.386Z,2.97
2019-06-26T09:27:40.960Z,2.60
2019-06-26T09:30:10.465Z,3.17
2019-06-26T09:32:39.993Z,3.00
2019-06-26T09:35:07.935Z,2.40
2019-06-26T09:37:42.819Z,3.17
2019-06-26T09:40:10.318Z,2.60
2019-06-26T09:42:37.708Z,2.40
2019-06-26T09:45:06.626Z,2.27
2019-06-26T09:47:34.127Z,2.40
2019-06-26T09:50:01.948Z,2.23
2019-06-26T09:52:29.457Z,2.50
2019-06-26T09:54:56.796Z,2.40
2019-06-26T09:57:24.175Z,2.60
2019-06-26T09:59:51.543Z,2.60
2019-06-26T10:02:18.953Z,2.27
2019-06-26T10:04:47.508Z,2.70
2019-06-26T10:07:15.009Z,2.40
2019-06-26T10:09:42.413Z,2.63
2019-06-26T10:12:09.915Z,2.50
2019-06-26T10:14:47.184Z,2.37
2019-06-26T10:17:06.406Z,3.20
2019-06-26T10:19:33.863Z,2.43
2019-06-26T10:22:01.435Z,2.40
2019-06-26T10:24:28.859Z,2.80
2019-06-26T10:26:56.340Z,2.80
2019-06-26T10:29:23.829Z,2.50
2019-06-26T10:31:51.148Z,2.63
2019-06-26T10:34:20.187Z,2.20
2019-06-26T10:36:48.611Z,2.13
2019-06-26T10:39:16.009Z,2.53
2019-06-26T10:41:43.487Z,2.33
2019-06-26T10:44:22.647Z,2.97
2019-06-26T10:46:42.592Z,2.30
2019-06-26T10:49:26.353Z,2.17
2019-06-26T10:51:46.705Z,2.27
2019-06-26T10:54:15.157Z,2.47
2019-06-26T10:56:44.179Z,2.40
2019-06-26T10:59:11.593Z,2.10
2019-06-26T11:01:39.130Z,2.00
2019-06-26T11:04:11.481Z,2.23
2019-06-26T11:06:39.030Z,2.00
2019-06-26T11:09:07.628Z,2.63
2019-06-26T11:11:35.046Z,2.37
2019-06-26T11:14:02.483Z,2.60
2019-06-26T11:16:30.259Z,3.30
2019-06-26T11:18:57.616Z,2.40
2019-06-26T11:21:25.075Z,2.07
2019-06-26T11:23:52.478Z,2.00
2019-06-26T11:26:20.404Z,1.97
2019-06-26T11:28:47.754Z,2.00
2019-06-26T11:31:15.199Z,3.77
2019-06-26T11:33:42.576Z,2.17
2019-06-26T11:36:11.739Z,2.40
2019-06-26T11:38:39.150Z,1.50
2019-06-26T11:41:06.609Z,1.50
2019-06-26T11:43:34.067Z,1.70
2019-06-26T11:46:01.444Z,3.17
2019-06-26T11:48:28.893Z,1.73
2019-06-26T11:50:56.235Z,1.60
2019-06-26T11:53:23.668Z,1.70
2019-06-26T11:55:51.150Z,2.33
2019-06-26T11:58:18.556Z,1.97
2019-06-26T12:00:45.897Z,2.23
2019-06-26T12:03:13.494Z,1.67
2019-06-26T12:05:40.961Z,1.50
2019-06-26T12:08:08.358Z,1.93
2019-06-26T12:10:35.777Z,2.07
2019-06-26T12:13:04.322Z,1.60
2019-06-26T12:15:31.972Z,2.33
2019-06-26T12:17:59.322Z,1.87
2019-06-26T12:20:26.859Z,1.80
2019-06-26T12:22:54.347Z,1.50
2019-06-26T12:25:25.392Z,1.70
2019-06-26T12:28:11.676Z,1.70
2019-06-26T12:30:44.847Z,1.50
2019-06-26T12:33:12.245Z,1.80
2019-06-26T12:35:39.833Z,1.70
2019-06-26T12:38:09.066Z,2.53
2019-06-26T12:40:36.443Z,1.80
2019-06-26T12:43:04.044Z,2.00
2019-06-26T12:45:33.048Z,2.87
2019-06-26T12:48:00.491Z,1.50
2019-06-26T12:50:35.971Z,1.77
2019-06-26T12:52:59.694Z,1.97
2019-06-26T12:55:32.741Z,1.60
2019-06-26T12:58:12.302Z,1.60
2019-06-26T13:00:27.395Z,1.60
2019-06-26T13:02:54.918Z,1.50
2019-06-26T13:05:22.391Z,1.50
2019-06-26T13:07:49.841Z,1.70
2019-06-26T13:10:17.485Z,1.87
2019-06-26T13:12:45.875Z,1.50
2019-06-26T13:15:13.710Z,1.70
2019-06-26T13:17:41.062Z,1.50
2019-06-26T13:20:10.609Z,1.87
2019-06-26T13:22:38.240Z,1.67
2019-06-26T13:25:06.782Z,1.60
2019-06-26T13:27:34.173Z,2.53
2019-06-26T13:30:01.580Z,1.60
2019-06-26T13:32:28.974Z,1.60
2019-06-26T13:34:56.394Z,4.17
2019-06-26T13:37:23.738Z,1.50
2019-06-26T13:39:51.107Z,1.50
2019-06-26T13:42:18.451Z,1.40
2019-06-26T13:44:46.959Z,1.80
2019-06-26T13:47:14.343Z,1.67
2019-06-26T13:49:42.797Z,2.20
2019-06-26T13:52:10.225Z,2.33
2019-06-26T13:54:37.574Z,3.60
2019-06-26T13:57:04.996Z,1.60
2019-06-26T13:59:32.439Z,1.50
2019-06-26T14:01:59.950Z,1.60
2019-06-26T14:04:27.314Z,1.50
2019-06-26T14:06:54.749Z,1.40
2019-06-26T14:09:22.101Z,1.40
2019-06-26T14:11:49.420Z,1.50
2019-06-26T14:14:20.526Z,1.73
2019-06-26T14:16:47.922Z,1.93
2019-06-26T14:19:15.324Z,1.57
2019-06-26T14:21:42.727Z,1.50
2019-06-26T14:24:10.196Z,1.50
2019-06-26T14:26:37.585Z,1.60
2019-06-26T14:29:20.098Z,2.37
2019-06-26T14:31:34.078Z,1.50
2019-06-26T14:34:01.519Z,2.23
2019-06-26T14:36:28.905Z,2.07
2019-06-26T14:38:56.314Z,1.40
2019-06-26T14:41:23.791Z,1.60
2019-06-26T14:43:51.184Z,1.77
2019-06-26T14:46:18.721Z,1.73
2019-06-26T14:48:46.176Z,1.50
2019-06-26T14:51:13.572Z,1.50
2019-06-26T14:53:40.991Z,1.50
2019-06-26T14:56:08.362Z,2.03
2019-06-26T14:58:36.452Z,1.40
2019-06-26T15:01:03.946Z,1.67
2019-06-26T15:03:31.412Z,1.50
2019-06-26T15:06:15.175Z,2.53
2019-06-26T15:08:27.824Z,1.50
2019-06-26T15:11:00.890Z,1.50
2019-06-26T15:13:28.301Z,1.90
2019-06-26T15:15:55.787Z,1.50
2019-06-26T15:18:23.214Z,1.80
2019-06-26T15:20:50.663Z,1.50
2019-06-26T15:23:19.697Z,1.93
2019-06-26T15:25:47.145Z,3.00
2019-06-26T15:28:14.578Z,1.40
2019-06-26T15:30:49.232Z,1.60
2019-06-26T15:33:19.382Z,1.50
2019-06-26T15:35:46.769Z,1.60
2019-06-26T15:38:14.164Z,1.40
2019-06-26T15:40:41.590Z,1.40
2019-06-26T15:43:09.108Z,3.00
2019-06-26T15:45:36.455Z,1.40
2019-06-26T15:48:03.906Z,1.50
2019-06-26T15:50:31.296Z,1.50
2019-06-26T15:53:01.831Z,1.93
2019-06-26T15:55:29.280Z,1.40
2019-06-26T15:57:56.750Z,1.50
2019-06-26T16:00:24.159Z,1.60
2019-06-26T16:02:51.630Z,1.60
2019-06-26T16:05:19.118Z,1.50
2019-06-26T16:07:46.578Z,2.00
2019-06-26T16:10:14.253Z,1.50
2019-06-26T16:12:41.660Z,1.40
2019-06-26T16:15:09.121Z,2.00
2019-06-26T16:17:44.238Z,2.33
2019-06-26T16:20:11.921Z,1.50
2019-06-26T16:22:40.782Z,1.50
2019-06-26T16:25:08.144Z,1.67
2019-06-26T16:27:35.583Z,1.50
2019-06-26T16:30:04.006Z,1.50
2019-06-26T16:32:31.387Z,1.50
2019-06-26T16:34:58.884Z,1.77
2019-06-26T16:37:26.308Z,1.50
2019-06-26T16:39:53.880Z,1.50
2019-06-26T16:42:21.267Z,1.40
2019-06-26T16:44:48.682Z,1.80
2019-06-26T16:47:16.074Z,1.50
2019-06-26T16:49:43.520Z,1.40
2019-06-26T16:52:10.975Z,1.50
2019-06-26T16:54:38.276Z,1.50
2019-06-26T16:57:05.600Z,1.53
2019-06-26T16:59:32.986Z,1.40
2019-06-26T17:02:00.283Z,1.40
2019-06-26T17:04:27.724Z,1.43
2019-06-26T17:06:55.047Z,1.47
2019-06-26T17:09:24.617Z,1.60
2019-06-26T17:11:52.054Z,1.50
2019-06-26T17:14:19.419Z,1.40
2019-06-26T17:16:48.533Z,1.43
2019-06-26T17:19:15.963Z,1.40
2019-06-26T17:21:43.733Z,1.40
2019-06-26T17:24:11.137Z,1.40
2019-06-26T17:26:38.442Z,1.50
2019-06-26T17:29:05.794Z,1.40
2019-06-26T17:31:33.210Z,1.50
2019-06-26T17:34:00.587Z,1.40
2019-06-26T17:36:28.981Z,1.40
2019-06-26T17:38:56.448Z,1.50
2019-06-26T17:41:23.918Z,1.40
2019-06-26T17:43:51.366Z,1.40
2019-06-26T17:46:18.728Z,1.47
2019-06-26T17:48:46.169Z,1.40
2019-06-26T17:51:13.686Z,1.50
2019-06-26T17:53:41.056Z,1.50
2019-06-26T17:56:08.438Z,1.50
2019-06-26T17:58:39.069Z,1.80
2019-06-26T18:01:06.447Z,1.70
2019-06-26T18:03:33.898Z,1.37
2019-06-26T18:06:01.326Z,1.40
2019-06-26T18:08:28.799Z,1.40
2019-06-26T18:10:56.231Z,1.30
2019-06-26T18:13:23.649Z,1.40
2019-06-26T18:15:52.115Z,1.40
2019-06-26T18:18:19.484Z,1.40
2019-06-26T18:20:46.911Z,1.40
2019-06-26T18:23:14.353Z,1.40
2019-06-26T18:25:42.305Z,1.40
2019-06-26T18:28:10.471Z,1.40
2019-06-26T18:30:37.833Z,1.50
2019-06-26T18:33:05.806Z,1.43
2019-06-26T18:35:33.203Z,1.80
2019-06-26T18:38:00.515Z,1.30
2019-06-26T18:40:27.993Z,1.40
2019-06-26T18:42:55.905Z,1.60
2019-06-26T18:45:23.303Z,1.30
2019-06-26T18:47:50.762Z,1.40
2019-06-26T18:50:18.229Z,1.40
2019-06-26T18:52:46.739Z,1.30
2019-06-26T18:56:37.109Z,1.93
2019-06-26T18:58:21.473Z,1.50
2019-06-26T19:00:49.157Z,1.40
2019-06-26T19:03:16.613Z,2.13
2019-06-26T19:05:44.100Z,1.60
2019-06-26T19:08:11.473Z,1.40
2019-06-26T19:10:38.935Z,1.40
2019-06-26T19:13:07.072Z,1.40
2019-06-26T19:15:34.440Z,1.40
2019-06-26T19:18:01.850Z,1.40
2019-06-26T19:20:29.313Z,1.90
2019-06-26T19:22:56.660Z,1.50
2019-06-26T19:25:24.034Z,1.23
2019-06-26T19:27:51.442Z,1.40
2019-06-26T19:30:18.907Z,1.50
2019-06-26T19:32:46.285Z,1.40
2019-06-26T19:35:21.095Z,1.40
2019-06-26T19:37:42.954Z,1.40
2019-06-26T19:40:10.358Z,1.40
2019-06-26T19:42:37.776Z,1.30
2019-06-26T19:45:05.993Z,1.50
2019-06-26T19:47:33.479Z,1.30
2019-06-26T19:50:05.986Z,1.40
2019-06-26T19:52:33.324Z,1.30
2019-06-26T19:55:00.706Z,1.33
2019-06-26T19:57:28.246Z,1.40
2019-06-26T19:59:56.266Z,1.30
2019-06-26T20:02:23.842Z,1.30
2019-06-26T20:04:53.363Z,1.37
2019-06-26T20:07:20.839Z,1.30
2019-06-26T20:09:48.504Z,1.23
2019-06-26T20:12:15.887Z,1.30
2019-06-26T20:14:43.284Z,1.27
2019-06-26T20:17:10.675Z,1.30
2019-06-26T20:19:40.075Z,1.30
2019-06-26T20:22:07.402Z,1.53
2019-06-26T20:24:44.117Z,1.30
2019-06-26T20:27:04.018Z,1.40
2019-06-26T20:29:31.421Z,1.20
2019-06-26T20:31:58.798Z,1.97
2019-06-26T20:34:26.094Z,1.40
2019-06-26T20:36:53.506Z,1.40
2019-06-26T20:39:20.885Z,1.30
2019-06-26T20:41:48.216Z,1.37
2019-06-26T20:44:15.540Z,1.50
2019-06-26T20:46:42.947Z,1.20
2019-06-26T20:49:10.386Z,1.20
2019-06-26T20:51:37.901Z,1.37
2019-06-26T20:54:18.189Z,1.30
2019-06-26T20:56:45.575Z,1.30
2019-06-26T20:59:13.112Z,1.37
2019-06-26T21:01:40.498Z,1.40
2019-06-26T21:04:07.910Z,1.50
2019-06-26T21:06:35.310Z,1.40
2019-06-26T21:09:02.742Z,1.40
2019-06-26T21:11:30.771Z,1.70
2019-06-26T21:13:58.312Z,1.40
2019-06-26T21:16:25.662Z,1.30
2019-06-26T21:18:53.214Z,1.40
2019-06-26T21:21:21.095Z,1.30
2019-06-26T21:23:48.451Z,1.77
2019-06-26T21:26:15.772Z,1.30
2019-06-26T21:28:43.138Z,1.30
2019-06-26T21:31:10.624Z,1.30
2019-06-26T21:33:39.141Z,1.30
2019-06-26T21:36:06.538Z,1.30
2019-06-26T21:38:33.933Z,1.30
2019-06-26T21:41:01.322Z,1.40
2019-06-26T21:43:33.501Z,1.30
2019-06-26T21:46:01.214Z,1.40
2019-06-26T21:48:31.644Z,1.30
2019-06-26T21:51:00.271Z,1.40
2019-06-26T21:53:31.154Z,1.30
2019-06-26T21:55:58.284Z,1.30
2019-06-26T21:58:25.736Z,1.30
2019-06-26T22:00:53.380Z,1.50
2019-06-26T22:03:20.882Z,1.30
2019-06-26T22:05:49.673Z,1.37
2019-06-26T22:08:17.117Z,1.30
2019-06-26T22:10:44.597Z,1.30
2019-06-26T22:13:13.495Z,1.30
2019-06-26T22:15:41.060Z,1.37
2019-06-26T22:18:08.462Z,1.30
2019-06-26T22:20:35.884Z,1.40
2019-06-26T22:23:03.258Z,1.20
2019-06-26T22:25:30.638Z,1.30
2019-06-26T22:27:57.965Z,1.70
2019-06-26T22:30:25.333Z,1.30
2019-06-26T22:32:52.788Z,1.30
2019-06-26T22:35:20.232Z,1.30
2019-06-26T22:37:47.633Z,1.20
2019-06-26T22:40:15.066Z,1.30
2019-06-26T22:42:42.436Z,1.30
2019-06-26T22:45:09.828Z,1.30
2019-06-26T22:47:37.221Z,1.20
2019-06-26T22:50:07.470Z,1.30
2019-06-26T22:52:34.918Z,1.30
2019-06-26T22:55:02.330Z,1.30
2019-06-26T22:57:29.619Z,1.27
2019-06-26T22:59:57.083Z,1.30
2019-06-26T23:02:24.602Z,1.30
2019-06-26T23:04:54.034Z,1.20
2019-06-26T23:07:21.423Z,1.20
2019-06-26T23:09:48.717Z,1.37
2019-06-26T23:12:16.107Z,1.30
2019-06-26T23:14:43.457Z,1.30
2019-06-26T23:17:10.769Z,1.30
2019-06-26T23:19:38.669Z,1.40
2019-06-26T23:22:06.041Z,1.30
2019-06-26T23:24:33.554Z,1.30
2019-06-26T23:27:00.991Z,1.30
2019-06-26T23:29:28.394Z,1.30
2019-06-26T23:31:55.765Z,1.13
2019-06-26T23:34:23.178Z,1.30
2019-06-26T23:36:50.535Z,1.25
2019-06-26T23:39:17.958Z,1.30
2019-06-26T23:41:45.347Z,1.30
2019-06-26T23:44:12.651Z,1.30
2019-06-26T23:46:40.141Z,1.10
2019-06-26T23:49:07.565Z,1.40
2019-06-26T23:51:34.971Z,1.20
2019-06-26T23:54:02.359Z,1.30
2019-06-26T23:56:39.890Z,1.22
2019-06-26T23:58:58.865Z,1.20
